Time;durP1;ratioP1;P1;durP2;ratioP2;P2;SDS_P1;SDS_P2;PMS_P1;PMS_P2;Temp;Humidity;BMP_temperature;BMP_pressure;BME280_temperature;BME280_humidity;BME280_pressure;Samples;Min_cycle;Max_cycle;Signal;HPM_P1;HPM_P2
2021/04/23 00:01:10;;;;;;;1.37;0.77;;;5.20;66.90;;;;;;5094020;28;20488;-69
2021/04/23 00:03:48;;;;;;;1.15;1.00;;;5.00;68.80;;;;;;5094044;28;20667;-72
2021/04/23 00:06:29;;;;;;;3.58;1.55;;;4.90;71.20;;;;;;5094012;28;20188;-73
2021/04/23 00:09:06;;;;;;;5.07;1.77;;;4.90;73.40;;;;;;5093574;28;20207;-70
2021/04/23 00:11:36;;;;;;;5.40;1.42;;;4.60;73.40;;;;;;5094077;28;20258;-73
2021/04/23 00:14:03;;;;;;;1.50;1.23;;;4.70;75.30;;;;;;5092392;28;20645;-72
2021/04/23 00:16:29;;;;;;;3.85;1.55;;;4.60;76.10;;;;;;5093729;28;20201;-72
2021/04/23 00:18:55;;;;;;;1.47;1.13;;;4.40;76.10;;;;;;5092154;28;20234;-72
2021/04/23 00:21:22;;;;;;;1.37;1.27;;;4.40;76.40;;;;;;5093919;28;20176;-72
2021/04/23 00:23:49;;;;;;;2.40;2.03;;;4.30;77.90;;;;;;5093925;28;20167;-72
2021/04/23 00:26:15;;;;;;;2.13;1.65;;;4.30;76.10;;;;;;5093629;28;20202;-71
2021/04/23 00:28:42;;;;;;;0.88;0.88;;;4.20;76.70;;;;;;5093251;28;20192;-73
2021/04/23 00:31:09;;;;;;;2.97;2.78;;;4.00;77.60;;;;;;5093601;28;20530;-73
2021/04/23 00:33:35;;;;;;;1.77;1.40;;;4.00;78.60;;;;;;5093417;28;20165;-71
2021/04/23 00:36:02;;;;;;;1.60;1.10;;;4.20;80.00;;;;;;5093506;28;20198;-71
2021/04/23 00:38:28;;;;;;;1.17;1.00;;;4.20;80.40;;;;;;5093375;28;20227;-73
2021/04/23 00:41:07;;;;;;;4.73;2.00;;;4.30;79.70;;;;;;5093361;28;20183;-73
2021/04/23 00:43:36;;;;;;;2.67;1.13;;;4.20;80.80;;;;;;5093608;28;20534;-70
2021/04/23 00:46:03;;;;;;;1.48;1.20;;;4.20;81.20;;;;;;5093237;28;20221;-71
2021/04/23 00:48:33;;;;;;;1.70;1.60;;;4.20;80.60;;;;;;5093209;28;20192;-72
2021/04/23 00:51:07;;;;;;;1.52;1.42;;;4.10;80.30;;;;;;5093184;28;20200;-74
2021/04/23 00:53:36;;;;;;;4.20;1.40;;;4.10;80.90;;;;;;5093293;28;20164;-72
2021/04/23 00:56:06;;;;;;;2.10;1.75;;;4.10;82.30;;;;;;5093326;28;20169;-70
2021/04/23 00:58:33;;;;;;;2.63;1.55;;;4.00;82.10;;;;;;5091908;28;20666;-72
2021/04/23 01:01:03;;;;;;;1.40;1.30;;;3.90;82.90;;;;;;5093089;28;20543;-73
2021/04/23 01:03:30;;;;;;;1.73;1.60;;;3.80;83.90;;;;;;5093352;28;20222;-73
2021/04/23 01:05:57;;;;;;;1.63;1.35;;;3.70;85.50;;;;;;5093220;28;20169;-71
2021/04/23 01:08:25;;;;;;;3.42;2.35;;;3.50;86.70;;;;;;5093917;28;20203;-70
2021/04/23 01:11:01;;;;;;;3.45;1.60;;;3.70;87.60;;;;;;5095580;28;20188;-71
2021/04/23 01:13:31;;;;;;;4.80;1.58;;;3.70;87.40;;;;;;5097148;28;20168;-73
2021/04/23 01:16:19;;;;;;;2.58;1.63;;;3.60;88.50;;;;;;5097275;28;20507;-71
2021/04/23 01:18:48;;;;;;;2.25;2.05;;;3.40;87.80;;;;;;5096776;28;20191;-70
2021/04/23 01:21:16;;;;;;;1.50;1.40;;;3.40;89.40;;;;;;5097073;28;20259;-71
2021/04/23 01:23:44;;;;;;;3.05;1.75;;;3.50;89.20;;;;;;5095656;28;20172;-70
2021/04/23 01:26:11;;;;;;;3.05;1.38;;;3.30;88.60;;;;;;5096884;28;20176;-71
2021/04/23 01:28:38;;;;;;;1.85;1.20;;;3.40;89.20;;;;;;5096765;28;20664;-72
2021/04/23 01:31:07;;;;;;;2.70;1.40;;;3.50;89.10;;;;;;5096805;28;20295;-71
2021/04/23 01:33:35;;;;;;;1.55;1.30;;;3.60;89.30;;;;;;5096971;28;20534;-72
2021/04/23 01:36:03;;;;;;;2.47;1.48;;;3.70;89.00;;;;;;5096570;28;20169;-72
2021/04/23 01:38:29;;;;;;;1.65;1.35;;;3.50;88.80;;;;;;5096798;28;20173;-71
2021/04/23 01:40:54;;;;;;;1.73;1.03;;;3.60;87.30;;;;;;5096511;28;20179;-73
2021/04/23 01:43:20;;;;;;;3.90;1.80;;;3.60;87.00;;;;;;5096684;28;20548;-72
2021/04/23 01:45:47;;;;;;;3.53;1.60;;;3.60;86.60;;;;;;5096756;28;20257;-72
2021/04/23 01:48:15;;;;;;;2.80;1.13;;;3.60;87.60;;;;;;5096307;28;20210;-71
2021/04/23 01:50:41;;;;;;;2.85;1.88;;;3.60;89.00;;;;;;5096307;28;20184;-73
2021/04/23 01:53:08;;;;;;;1.25;0.73;;;3.40;89.70;;;;;;5096409;28;20161;-73
2021/04/23 01:55:34;;;;;;;5.32;1.70;;;3.30;89.80;;;;;;5096422;28;20204;-72
2021/04/23 01:58:01;;;;;;;1.20;1.10;;;3.30;89.30;;;;;;5096197;28;20198;-71
2021/04/23 02:00:34;;;;;;;3.15;2.28;;;3.50;87.30;;;;;;5096052;28;20548;-70
2021/04/23 02:03:04;;;;;;;3.92;1.77;;;3.60;87.10;;;;;;5096174;28;20159;-72
2021/04/23 02:05:31;;;;;;;4.82;1.35;;;3.50;88.00;;;;;;5096185;28;20176;-73
2021/04/23 02:07:56;;;;;;;1.70;1.38;;;3.50;89.00;;;;;;5096238;28;20196;-73
2021/04/23 02:10:30;;;;;;;11.30;1.57;;;3.40;90.00;;;;;;5095752;28;20188;-72
2021/04/23 02:12:56;;;;;;;3.25;1.40;;;3.40;90.00;;;;;;5096326;28;20634;-71
2021/04/23 02:15:24;;;;;;;1.40;0.97;;;3.30;89.60;;;;;;5096126;28;20255;-71
2021/04/23 02:17:50;;;;;;;3.80;1.73;;;3.30;89.80;;;;;;5095904;28;20433;-71
2021/04/23 02:20:20;;;;;;;1.55;1.30;;;3.00;89.60;;;;;;5094645;28;20173;-69
2021/04/23 02:22:47;;;;;;;6.25;2.65;;;3.20;89.20;;;;;;5095899;28;20213;-70
2021/04/23 02:25:16;;;;;;;1.67;1.58;;;3.20;89.00;;;;;;5095894;28;20188;-71
2021/04/23 02:27:42;;;;;;;1.73;1.13;;;3.20;90.10;;;;;;5095586;28;20205;-73
2021/04/23 02:30:12;;;;;;;4.93;1.50;;;3.20;89.50;;;;;;5095534;28;20169;-73
2021/04/23 02:32:38;;;;;;;1.40;1.30;;;3.20;89.80;;;;;;5095658;28;20564;-72
2021/04/23 02:35:07;;;;;;;3.55;1.80;;;3.20;89.40;;;;;;5095647;28;20255;-71
2021/04/23 02:37:33;;;;;;;3.35;1.65;;;3.10;89.20;;;;;;5095437;28;20192;-71
2021/04/23 02:39:59;;;;;;;5.88;1.30;;;3.10;90.40;;;;;;5095385;28;20551;-73
2021/04/23 02:42:25;;;;;;;1.53;1.10;;;3.10;90.30;;;;;;5095428;28;20256;-70
2021/04/23 02:44:51;;;;;;;1.83;1.13;;;3.00;90.20;;;;;;5095615;28;20179;-73
2021/04/23 02:47:16;;;;;;;2.37;1.30;;;2.90;90.30;;;;;;5095214;28;20494;-71
2021/04/23 02:49:42;;;;;;;1.33;1.23;;;2.90;90.60;;;;;;5095176;28;20165;-73
2021/04/23 02:52:08;;;;;;;3.70;1.17;;;2.90;90.90;;;;;;5095442;28;20675;-73
2021/04/23 02:54:33;;;;;;;2.23;1.20;;;2.90;90.80;;;;;;5095436;28;20245;-73
2021/04/23 02:56:59;;;;;;;3.07;1.30;;;2.60;91.20;;;;;;5095143;28;20659;-73
2021/04/23 02:59:25;;;;;;;3.08;0.98;;;2.70;90.90;;;;;;5094936;28;20307;-72
2021/04/23 03:01:56;;;;;;;6.30;1.30;;;2.70;91.20;;;;;;5095143;28;20218;-73
2021/04/23 03:04:23;;;;;;;2.00;1.80;;;2.90;90.70;;;;;;5095348;28;20573;-73
2021/04/23 03:06:49;;;;;;;2.00;1.27;;;2.70;90.90;;;;;;5094913;28;20194;-71
2021/04/23 03:09:15;;;;;;;1.90;1.70;;;2.70;90.80;;;;;;5094507;28;20214;-72
2021/04/23 03:11:42;;;;;;;1.80;1.50;;;2.70;90.40;;;;;;5094956;28;20182;-73
2021/04/23 03:14:08;;;;;;;2.63;1.48;;;2.80;90.10;;;;;;5095167;28;20763;-72
2021/04/23 03:16:36;;;;;;;7.53;1.55;;;2.80;90.50;;;;;;5094728;28;20197;-71
2021/04/23 03:19:03;;;;;;;1.17;1.08;;;2.80;90.70;;;;;;5094670;28;20192;-70
2021/04/23 03:21:29;;;;;;;2.08;1.48;;;2.70;90.80;;;;;;5094766;28;20181;-72
2021/04/23 03:23:56;;;;;;;1.40;1.33;;;2.90;89.30;;;;;;5094844;28;20226;-72
2021/04/23 03:26:23;;;;;;;10.98;1.90;;;2.90;90.20;;;;;;5094681;28;20241;-73
2021/04/23 03:28:49;;;;;;;2.50;1.70;;;2.90;90.00;;;;;;5093023;28;20677;-72
2021/04/23 03:31:16;;;;;;;1.63;1.45;;;3.00;89.70;;;;;;5094271;28;20182;-73
2021/04/23 03:33:42;;;;;;;2.70;1.27;;;2.90;90.00;;;;;;5094596;28;20171;-72
2021/04/23 03:36:10;;;;;;;1.10;1.00;;;2.80;90.00;;;;;;5094505;28;20642;-72
2021/04/23 03:38:38;;;;;;;2.65;2.03;;;2.80;89.80;;;;;;5094328;28;20201;-72
2021/04/23 03:41:08;;;;;;;2.35;1.35;;;2.80;89.40;;;;;;5094101;28;20198;-73
2021/04/23 03:43:33;;;;;;;1.30;1.20;;;2.90;89.10;;;;;;5094315;28;20682;-72
2021/04/23 03:45:59;;;;;;;1.70;1.60;;;2.90;88.60;;;;;;5094366;28;20189;-72
2021/04/23 03:48:25;;;;;;;1.13;1.10;;;2.90;88.50;;;;;;5094123;28;20204;-74
2021/04/23 03:50:51;;;;;;;1.20;0.93;;;2.90;89.30;;;;;;5094218;28;20205;-72
2021/04/23 03:53:17;;;;;;;2.57;1.20;;;2.80;89.00;;;;;;5094244;28;20402;-71
2021/04/23 03:55:46;;;;;;;2.30;0.80;;;2.80;88.00;;;;;;5094089;28;20397;-71
2021/04/23 03:58:12;;;;;;;1.67;1.00;;;3.00;87.40;;;;;;5093962;28;20245;-69
2021/04/23 04:00:44;;;;;;;1.75;1.23;;;3.00;88.30;;;;;;5093956;28;20199;-72
2021/04/23 04:03:11;;;;;;;7.15;1.20;;;2.90;87.90;;;;;;5094080;28;20516;-73
2021/04/23 04:05:37;;;;;;;3.47;1.33;;;2.90;88.10;;;;;;5094058;28;20176;-73
2021/04/23 04:08:04;;;;;;;3.40;1.83;;;2.90;89.00;;;;;;5093715;28;20207;-73
2021/04/23 04:10:30;;;;;;;2.75;1.73;;;2.80;89.50;;;;;;5093639;28;20423;-73
2021/04/23 04:12:56;;;;;;;2.70;1.55;;;2.70;90.00;;;;;;5093790;28;20184;-74
2021/04/23 04:15:24;;;;;;;4.50;1.20;;;2.80;90.10;;;;;;5094049;28;20530;-70
2021/04/23 04:17:50;;;;;;;5.00;1.67;;;2.80;90.10;;;;;;5093615;28;20192;-73
2021/04/23 04:20:16;;;;;;;0.67;0.67;;;2.80;90.30;;;;;;5093482;28;20169;-73
2021/04/23 04:22:42;;;;;;;1.35;1.20;;;2.80;90.60;;;;;;5093619;28;20405;-70
2021/04/23 04:25:12;;;;;;;4.10;1.17;;;2.70;90.00;;;;;;5093644;28;20176;-73
2021/04/23 04:27:38;;;;;;;2.97;1.08;;;2.50;89.30;;;;;;5093737;28;20279;-72
2021/04/23 04:30:05;;;;;;;3.90;1.17;;;2.60;90.70;;;;;;5093417;28;20213;-73
2021/04/23 04:32:31;;;;;;;1.08;0.93;;;2.70;90.50;;;;;;5093684;28;20163;-72
2021/04/23 04:34:57;;;;;;;1.63;1.47;;;2.60;90.30;;;;;;5093619;28;20179;-72
2021/04/23 04:37:22;;;;;;;3.30;1.43;;;2.70;90.20;;;;;;5093404;28;20196;-71
2021/04/23 04:39:48;;;;;;;2.23;1.17;;;2.70;90.20;;;;;;5093487;28;20175;-71
2021/04/23 04:42:14;;;;;;;1.10;0.80;;;2.70;90.00;;;;;;5093442;28;20191;-72
2021/04/23 04:44:40;;;;;;;1.40;1.30;;;2.60;89.80;;;;;;5093087;28;20182;-71
2021/04/23 04:47:05;;;;;;;1.57;1.27;;;2.70;90.00;;;;;;5093407;28;20219;-71
2021/04/23 04:49:31;;;;;;;8.63;1.80;;;2.80;90.10;;;;;;5093068;28;20227;-72
2021/04/23 04:51:57;;;;;;;1.43;1.23;;;2.70;89.20;;;;;;5093554;28;20175;-71
2021/04/23 04:54:23;;;;;;;1.10;0.90;;;2.60;89.50;;;;;;5093366;28;20167;-71
2021/04/23 04:56:48;;;;;;;1.17;0.97;;;2.60;90.80;;;;;;5093218;28;20536;-70
2021/04/23 04:59:14;;;;;;;1.60;1.20;;;2.80;90.30;;;;;;5093098;28;20174;-72
2021/04/23 05:01:40;;;;;;;5.00;1.17;;;3.00;90.10;;;;;;5093738;28;20168;-71
2021/04/23 05:04:05;;;;;;;2.83;1.33;;;3.10;90.20;;;;;;5093401;28;20663;-73
2021/04/23 05:06:31;;;;;;;5.03;3.30;;;3.30;89.40;;;;;;5093102;28;20185;-72
2021/04/23 05:08:57;;;;;;;1.73;1.60;;;3.40;87.80;;;;;;5093047;28;20197;-71
2021/04/23 05:11:23;;;;;;;5.10;2.43;;;3.40;87.90;;;;;;5093088;28;20428;-74
2021/04/23 05:13:48;;;;;;;2.43;1.80;;;3.30;88.80;;;;;;5093216;28;20193;-71
2021/04/23 05:16:16;;;;;;;1.80;1.70;;;3.30;87.40;;;;;;5092821;28;20173;-72
2021/04/23 05:18:42;;;;;;;1.73;1.25;;;3.40;85.70;;;;;;5092797;28;20251;-72
2021/04/23 05:21:07;;;;;;;3.93;1.27;;;3.50;85.70;;;;;;5093020;28;20264;-72
2021/04/23 05:23:33;;;;;;;1.43;1.23;;;3.80;83.50;;;;;;5093236;28;20176;-74
2021/04/23 05:25:58;;;;;;;1.30;1.20;;;4.90;81.80;;;;;;5092972;28;20562;-70
2021/04/23 05:28:24;;;;;;;0.80;0.80;;;6.70;76.60;;;;;;5092881;28;20202;-70
2021/04/23 05:30:50;;;;;;;8.70;2.57;;;8.90;69.00;;;;;;5092811;28;20168;-71
2021/04/23 05:33:16;;;;;;;2.00;1.90;;;10.90;56.30;;;;;;5093056;28;20169;-71
2021/04/23 05:35:42;;;;;;;3.53;2.17;;;12.90;52.20;;;;;;5093041;28;20399;-70
2021/04/23 05:38:08;;;;;;;4.47;2.43;;;14.70;47.60;;;;;;5092928;28;20430;-71
2021/04/23 05:40:37;;;;;;;1.97;1.87;;;16.20;44.30;;;;;;5092740;28;20402;-72
2021/04/23 05:43:05;;;;;;;4.03;2.90;;;17.60;40.70;;;;;;5093002;28;20542;-70
2021/04/23 05:45:31;;;;;;;4.70;4.40;;;18.70;37.10;;;;;;5092958;28;20420;-72
2021/04/23 05:47:58;;;;;;;3.43;3.13;;;19.60;35.20;;;;;;5092615;28;20458;-72
2021/04/23 05:50:25;;;;;;;3.23;2.60;;;20.20;34.20;;;;;;5092607;28;20911;-69
2021/04/23 05:52:51;;;;;;;3.43;2.97;;;20.70;31.70;;;;;;5092890;28;20939;-71
2021/04/23 05:55:19;;;;;;;4.00;3.60;;;21.50;30.40;;;;;;5094915;28;20394;-70
2021/04/23 05:57:45;;;;;;;4.87;3.70;;;22.30;30.00;;;;;;5096320;28;20596;-73
2021/04/23 06:00:15;;;;;;;2.70;2.40;;;22.90;29.60;;;;;;5095889;28;20463;-71
2021/04/23 06:02:41;;;;;;;4.80;3.43;;;22.90;28.90;;;;;;5096079;28;20172;-68
2021/04/23 06:05:08;;;;;;;7.37;3.40;;;22.80;28.50;;;;;;5096155;28;20492;-70
2021/04/23 06:07:34;;;;;;;4.87;2.70;;;22.60;29.20;;;;;;5095939;28;20283;-72
2021/04/23 06:10:00;;;;;;;3.40;2.57;;;22.80;28.80;;;;;;5094500;28;20499;-72
2021/04/23 06:12:26;;;;;;;7.10;3.30;;;23.30;28.40;;;;;;5096204;28;20176;-71
2021/04/23 06:14:52;;;;;;;3.77;2.80;;;23.50;28.00;;;;;;5095881;28;20161;-70
2021/04/23 06:17:18;;;;;;;4.87;3.47;;;24.20;27.70;;;;;;5095227;28;20438;-73
2021/04/23 06:19:44;;;;;;;5.60;3.50;;;24.90;26.90;;;;;;5095727;28;20175;-71
2021/04/23 06:22:09;;;;;;;3.80;2.30;;;25.40;27.10;;;;;;5094857;28;20176;-74
2021/04/23 06:24:36;;;;;;;2.40;2.20;;;25.60;25.20;;;;;;5094959;28;20662;-71
2021/04/23 06:27:03;;;;;;;3.27;2.23;;;25.80;26.00;;;;;;5094142;28;20406;-71
2021/04/23 06:29:29;;;;;;;3.10;2.17;;;25.70;24.90;;;;;;5095926;28;20453;-72
2021/04/23 06:31:56;;;;;;;3.00;2.20;;;25.90;25.40;;;;;;5095758;28;20888;-73
2021/04/23 06:34:21;;;;;;;3.00;2.23;;;26.00;25.60;;;;;;5095853;28;20212;-72
2021/04/23 06:36:47;;;;;;;6.40;3.03;;;26.10;25.50;;;;;;5095693;28;20506;-73
2021/04/23 06:39:17;;;;;;;2.60;1.73;;;25.10;25.60;;;;;;5095777;28;20177;-72
2021/04/23 06:41:42;;;;;;;3.40;2.00;;;25.40;25.20;;;;;;5096089;28;20244;-72
2021/04/23 06:44:08;;;;;;;2.83;2.20;;;26.10;24.90;;;;;;5096132;28;20442;-72
2021/04/23 06:46:35;;;;;;;3.90;2.13;;;25.80;26.40;;;;;;5095329;28;20185;-70
2021/04/23 06:49:00;;;;;;;2.20;2.00;;;24.70;26.40;;;;;;5095422;28;20192;-70
2021/04/23 06:51:27;;;;;;;2.60;2.40;;;23.20;27.20;;;;;;5095687;28;20844;-71
2021/04/23 06:53:52;;;;;;;4.00;2.33;;;21.60;28.50;;;;;;5095768;28;20189;-71
2021/04/23 06:56:18;;;;;;;2.80;1.60;;;21.50;28.40;;;;;;5095759;28;20432;-71
2021/04/23 06:58:46;;;;;;;5.80;2.23;;;21.80;27.00;;;;;;5095668;28;20169;-71
2021/04/23 07:01:12;;;;;;;2.10;1.83;;;22.20;26.90;;;;;;5095039;28;20165;-71
2021/04/23 07:03:40;;;;;;;5.13;2.00;;;22.80;26.90;;;;;;5095373;28;20374;-70
2021/04/23 07:06:06;;;;;;;3.27;1.80;;;23.60;25.90;;;;;;5094702;28;20395;-71
2021/04/23 07:08:32;;;;;;;2.77;1.47;;;23.80;24.00;;;;;;5095414;28;20441;-70
2021/04/23 07:10:57;;;;;;;1.90;1.77;;;25.00;24.20;;;;;;5094649;28;20176;-69
2021/04/23 07:13:23;;;;;;;4.50;1.70;;;26.10;23.40;;;;;;5095329;28;20169;-70
2021/04/23 07:15:49;;;;;;;3.60;1.93;;;26.40;22.80;;;;;;5094920;28;20183;-69
2021/04/23 07:18:14;;;;;;;3.40;3.03;;;26.00;22.30;;;;;;5095047;28;20188;-68
2021/04/23 07:20:40;;;;;;;2.70;2.03;;;25.80;21.60;;;;;;5094944;28;20172;-69
2021/04/23 07:23:07;;;;;;;2.50;2.07;;;26.30;21.70;;;;;;5094741;28;20253;-69
2021/04/23 07:25:33;;;;;;;2.20;2.00;;;26.90;21.40;;;;;;5094848;28;20394;-70
2021/04/23 07:27:59;;;;;;;3.20;2.27;;;26.80;21.70;;;;;;5093351;28;20460;-69
2021/04/23 07:30:27;;;;;;;2.30;2.10;;;27.50;20.70;;;;;;5094460;28;20884;-70
2021/04/23 07:32:54;;;;;;;3.23;1.60;;;26.30;21.30;;;;;;5094692;28;20169;-69
2021/04/23 07:35:19;;;;;;;2.70;2.20;;;25.70;21.50;;;;;;5094516;28;20402;-70
2021/04/23 07:37:45;;;;;;;1.83;1.70;;;25.80;21.20;;;;;;5093349;28;20568;-68
2021/04/23 07:40:14;;;;;;;2.00;1.70;;;25.50;21.60;;;;;;5094278;28;20221;-69
2021/04/23 07:42:40;;;;;;;1.73;1.50;;;25.60;21.70;;;;;;5094222;28;20188;-69
2021/04/23 07:45:08;;;;;;;2.10;1.50;;;26.20;22.10;;;;;;5094433;28;20419;-68
2021/04/23 07:47:34;;;;;;;3.60;2.90;;;26.60;21.80;;;;;;5094587;28;20434;-72
2021/04/23 07:50:00;;;;;;;3.30;2.10;;;26.90;22.00;;;;;;5094017;28;20399;-70
2021/04/23 07:52:27;;;;;;;2.43;1.90;;;28.20;21.30;;;;;;5093457;28;20410;-72
2021/04/23 07:54:54;;;;;;;3.27;1.77;;;29.60;19.90;;;;;;5094647;28;20405;-72
2021/04/23 07:57:19;;;;;;;2.63;1.70;;;29.20;20.90;;;;;;5094335;28;20767;-72
2021/04/23 07:59:45;;;;;;;2.33;1.80;;;30.20;20.90;;;;;;5094080;28;20399;-71
2021/04/23 08:02:11;;;;;;;2.93;1.70;;;30.90;20.00;;;;;;5094275;28;20263;-71
2021/04/23 08:04:39;;;;;;;2.73;1.63;;;31.00;18.80;;;;;;5094440;28;20478;-72
2021/04/23 08:07:07;;;;;;;8.03;2.27;;;30.30;19.50;;;;;;5094121;28;20275;-72
2021/04/23 08:09:36;;;;;;;2.47;2.27;;;30.80;19.10;;;;;;5093966;28;20454;-71
2021/04/23 08:12:03;;;;;;;1.80;1.67;;;32.10;18.60;;;;;;5092473;28;20403;-71
2021/04/23 08:14:29;;;;;;;4.23;2.17;;;31.70;19.00;;;;;;5092531;28;20813;-70
2021/04/23 08:16:55;;;;;;;2.13;1.60;;;31.40;18.30;;;;;;5093194;28;20427;-69
2021/04/23 08:19:20;;;;;;;1.43;1.23;;;31.20;18.30;;;;;;5092654;28;20172;-69
2021/04/23 08:21:47;;;;;;;2.60;1.70;;;30.40;18.00;;;;;;5093785;28;20177;-71
2021/04/23 08:24:13;;;;;;;2.00;1.80;;;29.50;18.50;;;;;;5093433;28;20184;-68
2021/04/23 08:26:40;;;;;;;2.10;2.00;;;29.90;19.20;;;;;;5093924;28;20418;-68
2021/04/23 08:29:06;;;;;;;1.90;1.37;;;30.50;17.80;;;;;;5093284;28;20466;-69
2021/04/23 08:31:32;;;;;;;2.87;1.90;;;29.60;17.50;;;;;;5093572;28;20798;-70
2021/04/23 08:33:58;;;;;;;2.23;1.40;;;29.70;18.30;;;;;;5092330;28;20180;-69
2021/04/23 08:36:23;;;;;;;7.27;2.00;;;30.50;17.80;;;;;;5093305;28;20661;-68
2021/04/23 08:38:49;;;;;;;5.20;2.53;;;30.20;17.80;;;;;;5093235;28;20172;-69
2021/04/23 08:41:15;;;;;;;3.07;1.60;;;30.40;17.90;;;;;;5093380;28;20172;-69
2021/04/23 08:43:40;;;;;;;1.97;1.77;;;30.30;17.50;;;;;;5093583;28;20172;-68
2021/04/23 08:46:06;;;;;;;2.80;1.90;;;29.40;18.00;;;;;;5093352;28;20650;-71
2021/04/23 08:48:33;;;;;;;4.20;1.80;;;27.30;18.80;;;;;;5093912;28;20192;-70
2021/04/23 08:51:00;;;;;;;1.67;1.57;;;27.50;19.20;;;;;;5093303;28;20161;-69
2021/04/23 08:53:27;;;;;;;2.70;1.70;;;27.90;18.80;;;;;;5093902;28;20493;-68
2021/04/23 08:55:57;;;;;;;2.70;1.87;;;27.80;18.20;;;;;;5093271;28;20434;-71
2021/04/23 08:58:23;;;;;;;2.80;1.73;;;28.20;18.90;;;;;;5093170;28;20456;-71
2021/04/23 09:00:49;;;;;;;2.00;1.80;;;28.50;18.70;;;;;;5093150;28;20411;-69
2021/04/23 09:03:19;;;;;;;2.60;1.17;;;28.40;20.00;;;;;;5093191;28;20411;-70
2021/04/23 09:06:08;;;;;;;2.73;1.53;;;28.90;18.70;;;;;;5093291;28;20395;-67
2021/04/23 09:08:35;;;;;;;1.57;1.47;;;28.70;18.80;;;;;;5093112;28;20443;-69
2021/04/23 09:11:18;;;;;;;2.70;1.50;;;29.00;20.10;;;;;;5092931;28;20430;-70
2021/04/23 09:13:50;;;;;;;1.77;1.67;;;28.50;19.40;;;;;;5093281;28;20429;-70
2021/04/23 09:16:20;;;;;;;5.27;1.60;;;28.50;18.70;;;;;;5092179;28;20438;-69
2021/04/23 09:18:46;;;;;;;2.10;1.90;;;29.40;19.40;;;;;;5093308;28;20734;-69
2021/04/23 09:21:14;;;;;;;1.37;1.27;;;29.40;17.20;;;;;;5092560;28;20464;-71
2021/04/23 09:23:53;;;;;;;1.57;1.33;;;29.50;17.90;;;;;;5092345;28;20406;-71
2021/04/23 09:26:32;;;;;;;3.73;2.40;;;28.80;18.30;;;;;;5093016;28;20432;-67
2021/04/23 09:28:58;;;;;;;3.90;2.33;;;26.50;18.60;;;;;;5092082;28;20458;-70
2021/04/23 09:31:25;;;;;;;3.97;1.40;;;25.50;18.80;;;;;;5096995;28;20393;-69
2021/04/23 09:33:52;;;;;;;2.30;1.73;;;25.10;20.40;;;;;;5097165;28;20189;-70
2021/04/23 09:36:46;;;;;;;2.43;1.60;;;24.20;20.20;;;;;;5097137;28;20412;-67
2021/04/23 09:39:21;;;;;;;2.93;1.63;;;23.70;20.20;;;;;;5094984;28;20454;-70
2021/04/23 09:42:03;;;;;;;3.20;1.77;;;24.30;21.90;;;;;;5096968;28;20447;-70
2021/04/23 09:44:43;;;;;;;4.40;4.00;;;24.40;20.60;;;;;;5096548;28;20921;-68
2021/04/23 09:47:18;;;;;;;4.40;1.80;;;24.40;19.80;;;;;;5096739;28;20428;-69
2021/04/23 09:49:52;;;;;;;1.57;1.40;;;25.20;20.30;;;;;;5096281;28;20475;-68
2021/04/23 09:52:18;;;;;;;2.27;1.90;;;25.90;19.10;;;;;;5095419;28;20905;-71
2021/04/23 09:54:50;;;;;;;2.03;1.67;;;26.10;19.90;;;;;;5096756;28;20839;-71
2021/04/23 09:57:19;;;;;;;1.33;1.20;;;26.70;21.30;;;;;;5096433;28;20429;-69
2021/04/23 09:59:49;;;;;;;2.37;2.00;;;28.10;20.20;;;;;;5096109;28;20822;-71
2021/04/23 10:02:17;;;;;;;2.53;2.10;;;30.00;18.70;;;;;;5095137;28;20776;-70
2021/04/23 10:04:43;;;;;;;1.97;1.73;;;29.50;18.20;;;;;;5095633;28;20456;-71
2021/04/23 10:07:17;;;;;;;3.50;2.20;;;28.70;18.30;;;;;;5094689;28;20462;-70
2021/04/23 10:09:52;;;;;;;2.40;1.60;;;28.20;18.40;;;;;;5095832;28;20196;-69
2021/04/23 10:12:34;;;;;;;1.67;1.57;;;26.50;19.20;;;;;;5096123;28;20892;-67
2021/04/23 10:15:14;;;;;;;1.90;1.70;;;25.00;19.40;;;;;;5096454;28;20409;-68
2021/04/23 10:17:44;;;;;;;3.70;2.10;;;25.00;20.10;;;;;;5096021;28;20795;-70
2021/04/23 10:20:13;;;;;;;2.47;1.90;;;24.60;20.40;;;;;;5095710;28;20374;-70
2021/04/23 10:22:39;;;;;;;2.60;1.80;;;23.70;20.70;;;;;;5096038;28;20394;-70
2021/04/23 10:25:06;;;;;;;3.17;1.90;;;22.60;21.10;;;;;;5096028;28;20459;-68
2021/04/23 10:27:35;;;;;;;1.50;1.20;;;22.10;21.40;;;;;;5095804;28;20841;-68
2021/04/23 10:30:06;;;;;;;1.40;1.20;;;21.90;21.90;;;;;;5095533;28;20395;-68
2021/04/23 10:32:31;;;;;;;3.20;1.63;;;20.90;21.60;;;;;;5094575;28;20411;-70
2021/04/23 10:34:58;;;;;;;2.03;1.80;;;20.20;22.00;;;;;;5095740;28;20905;-67
2021/04/23 10:37:24;;;;;;;1.50;1.40;;;20.70;20.10;;;;;;5095548;28;20203;-67
2021/04/23 10:39:52;;;;;;;3.17;1.90;;;21.40;21.70;;;;;;5095401;28;20810;-70
2021/04/23 10:42:39;;;;;;;1.57;1.47;;;22.50;21.70;;;;;;5094490;28;20408;-68
2021/04/23 10:45:20;;;;;;;2.50;1.70;;;22.00;20.00;;;;;;5088280;28;20422;-70
2021/04/23 10:47:46;;;;;;;3.23;1.80;;;21.60;20.80;;;;;;5095422;28;20448;-70
2021/04/23 10:50:15;;;;;;;2.80;1.70;;;21.50;21.00;;;;;;5095063;28;20460;-68
2021/04/23 10:53:00;;;;;;;1.83;1.60;;;21.60;21.80;;;;;;5095315;28;20255;-68
2021/04/23 10:55:55;;;;;;;2.10;1.50;;;21.20;22.50;;;;;;5095182;28;20434;-69
2021/04/23 10:58:29;;;;;;;5.97;1.77;;;20.90;21.40;;;;;;5086157;28;20441;-69
2021/04/23 11:01:18;;;;;;;2.67;1.93;;;20.00;21.60;;;;;;5095017;28;20404;-68
2021/04/23 11:03:45;;;;;;;2.27;1.70;;;19.40;22.50;;;;;;5095181;28;20413;-69
2021/04/23 11:06:15;;;;;;;1.40;1.30;;;18.50;22.60;;;;;;5095173;28;20404;-68
2021/04/23 11:09:03;;;;;;;1.60;1.50;;;17.80;23.80;;;;;;5094897;28;20445;-69
2021/04/23 11:11:39;;;;;;;2.40;1.97;;;17.60;24.60;;;;;;5095583;28;20419;-67
2021/04/23 11:14:32;;;;;;;6.23;2.10;;;17.70;25.10;;;;;;5094896;28;20422;-70
2021/04/23 11:17:16;;;;;;;2.13;1.40;;;18.00;24.90;;;;;;5094921;28;20426;-71
2021/04/23 11:19:41;;;;;;;2.40;2.20;;;18.20;25.00;;;;;;5094607;28;20403;-68
2021/04/23 11:22:13;;;;;;;3.63;1.97;;;18.00;25.40;;;;;;5094791;28;20747;-69
2021/04/23 11:24:58;;;;;;;2.80;1.93;;;17.70;24.50;;;;;;5095044;28;20173;-70
2021/04/23 11:27:24;;;;;;;1.70;1.60;;;17.90;24.70;;;;;;5094571;28;20415;-69
2021/04/23 11:29:52;;;;;;;2.80;2.33;;;17.90;25.00;;;;;;5094370;28;20496;-70
2021/04/23 11:32:25;;;;;;;1.57;1.40;;;17.50;24.20;;;;;;5094490;28;20566;-70
2021/04/23 11:34:52;;;;;;;3.97;2.43;;;17.70;25.10;;;;;;5094824;28;20487;-71
2021/04/23 11:37:24;;;;;;;4.47;1.57;;;17.50;25.30;;;;;;5094535;28;20419;-69
2021/04/23 11:39:55;;;;;;;1.60;1.50;;;17.50;25.10;;;;;;5094115;28;20407;-69
2021/04/23 11:42:44;;;;;;;2.13;1.47;;;17.40;26.40;;;;;;5092989;28;20430;-68
2021/04/23 11:45:13;;;;;;;1.43;1.33;;;17.30;24.40;;;;;;5094813;28;20932;-68
2021/04/23 11:47:46;;;;;;;1.70;1.43;;;17.00;25.10;;;;;;5093096;28;20427;-69
2021/04/23 11:50:37;;;;;;;2.00;1.57;;;16.80;24.10;;;;;;5094214;28;20410;-70
2021/04/23 11:53:12;;;;;;;1.97;1.57;;;16.80;24.30;;;;;;5094106;28;20478;-69
2021/04/23 11:55:47;;;;;;;1.17;1.00;;;16.60;23.00;;;;;;5094022;28;20504;-68
2021/04/23 11:58:19;;;;;;;1.63;1.50;;;16.50;23.90;;;;;;5094561;28;20430;-68
2021/04/23 12:00:56;;;;;;;2.57;1.27;;;16.60;24.20;;;;;;5093862;28;20399;-70
2021/04/23 12:03:22;;;;;;;3.17;1.80;;;16.70;23.60;;;;;;5094117;28;20400;-68
2021/04/23 12:05:53;;;;;;;3.30;1.90;;;17.00;26.70;;;;;;5094480;28;20406;-68
2021/04/23 12:08:27;;;;;;;3.90;1.77;;;17.10;24.00;;;;;;5094186;28;20451;-69
2021/04/23 12:10:54;;;;;;;1.83;1.60;;;16.80;25.40;;;;;;5093452;28;20430;-68
2021/04/23 12:13:24;;;;;;;2.10;1.63;;;16.50;25.40;;;;;;5094509;28;20403;-68
2021/04/23 12:15:58;;;;;;;1.60;1.50;;;16.40;27.00;;;;;;5093988;28;20736;-70
2021/04/23 12:18:24;;;;;;;3.17;1.47;;;16.30;26.70;;;;;;5094103;28;20429;-70
2021/04/23 12:20:54;;;;;;;1.67;1.57;;;16.30;26.40;;;;;;5094068;28;20406;-69
2021/04/23 12:23:28;;;;;;;2.40;2.00;;;16.20;26.80;;;;;;5094316;28;20397;-68
2021/04/23 12:25:58;;;;;;;2.37;2.17;;;16.50;28.10;;;;;;5094023;28;20451;-68
2021/04/23 12:28:32;;;;;;;6.83;3.60;;;16.70;26.20;;;;;;5094127;28;20477;-68
2021/04/23 12:31:21;;;;;;;2.57;2.37;;;16.90;27.70;;;;;;5093581;28;20403;-68
2021/04/23 12:33:50;;;;;;;1.73;1.63;;;17.00;27.70;;;;;;5092780;28;20746;-69
2021/04/23 12:36:26;;;;;;;1.90;1.80;;;16.90;27.30;;;;;;5094023;28;20691;-69
2021/04/23 12:38:56;;;;;;;3.03;2.10;;;16.60;27.60;;;;;;5093425;28;20406;-69
2021/04/23 12:41:23;;;;;;;4.73;2.23;;;16.70;24.90;;;;;;5093886;28;20403;-70
2021/04/23 12:43:51;;;;;;;1.80;1.70;;;16.80;27.50;;;;;;5093805;28;20414;-67
2021/04/23 12:46:32;;;;;;;1.77;1.67;;;16.60;24.90;;;;;;5093845;28;20443;-68
2021/04/23 12:49:08;;;;;;;1.67;1.53;;;16.50;25.50;;;;;;5093103;28;20460;-69
2021/04/23 12:51:47;;;;;;;1.53;1.43;;;16.50;26.40;;;;;;5093405;28;20429;-68
2021/04/23 12:54:15;;;;;;;2.77;2.20;;;16.60;27.40;;;;;;5093749;28;20749;-67
2021/04/23 12:56:52;;;;;;;1.67;1.57;;;17.00;28.20;;;;;;5093737;28;20887;-69
2021/04/23 12:59:47;;;;;;;3.40;1.70;;;17.20;27.20;;;;;;5093133;28;20432;-69